GMAD/AGA METAR and TAF weather

Enter ICAO airport designator
Station Type Date Time Source
GMAD METAR 2018/12/12 23:00 UTC NOAA

GMAD 122300Z /////KT CAVOK Q//// NOSIG


Station Type Date Time Source
GMAD Decoded METAR 2018/12/12 23:00 UTC NOAA

Agadir Al Massira, Morocco (GMAD) 30-20N 009-24W 74M
Dec 12, 2018 - 06:00 PM EST / 2018.12.12 2300 UTC
Visibility: greater than 7 mile(s):0
ob: GMAD 122300Z /////KT CAVOK Q//// NOSIG
cycle: 23

Station Type Date Time Source
GMAD TAF 2018/12/12 18:18 UTC NOAA

TAF TAF GMAD 121700Z 1218/1324 20008KT 8000 SCT016 PROB40
TEMPO 1223/1306 2000 BR BKN003


Example: see airport list